Wieliszewski Crossing Jesień - kolarstwo MTB 19,2 km

Wieliszew, 14-10-2018


Zawodnicy na mecie: 217, kobiety: 43, mężczyźni: 174

Wybierz kategorię:     Pobierz wyniki OPEN w formacie PDF


Klasyfikacja drużynowa kliknij tutaj




M-ceM. kat.NrKategoriaNazwisko Imię Miejscowość Klub Wynik V-śr Punkty Klucz
9444674M31-40Składanek Roman Warszawa PROFIL GOLD TEAM 00:55:04 21.79 km/h152.54RZ8169
9511752M21-30Zagubień Marcin . JW3934 00:55:18 21.7 km/h151.9RZ8072
9645942M31-40Świderski Michał Legionowo TRI LEVEL 00:55:20 21.69 km/h151.81RJ8400
84600K31-40Szypszak Anna Warszawa - 00:55:21 21.68 km/h177.9RW8222
9730633M41-50Szoblik Paweł Jabłonna BIKE FUN LEGIONOWO 00:55:31 21.61 km/h151.31RZ8216
9812751M21-30Gadecki Adam . JW3934 00:55:35 21.58 km/h151.12RW8285
9946929M31-40Sobiech Paweł Legionowo TRI LEVEL 00:55:46 21.52 km/h150.63RJ8394
10047968M31-40Niesluchowski Slawomir Gąsocin - 00:55:46 21.51 km/h150.63RJ8410
10148691M31-40Kręć Michał Łajski - 00:55:50 21.49 km/h150.45RJ8375
10249736M31-40Michalik Arkadiusz . WIELISZEW HERON TEAM 00:55:55 21.46 km/h150.22RW8254
92700K41-50Michalczyk Anna Warszawa ANI SPRZĘTU ANI TALENTU 00:56:13 21.34 km/h175.16RZ8182
10350629M31-40Krzewski Marcin Żabiczyn NASIELSK BASZTA TEAM 00:56:22 21.29 km/h149.02RL8300
1042729M61plusKaczorowski Aleksander . WIELISZEW HERON TEAM 00:56:24 21.28 km/h148.94RZ8139
10551922M31-40Matanowski Sebastian Skrzeszew POLNA TEAM 00:56:29 21.24 km/h148.72RZ8022
10631690M41-50Dębski Jarosław Legionowo - 00:56:36 21.2 km/h148.41RW8250
10713667M21-30Ratajczyk Adrian Warszawa - 00:56:43 21.16 km/h148.1RL8324
10832656M41-50Sobolewski Mariusz Góra PROFIL GOLD TEAM 00:56:43 21.15 km/h148.1RZ8170
103720K41-50Ozimkiewicz Agata Leszno KLINIKA ROWERÓW 00:56:52 21.1 km/h173.15RL8308
10933718M41-50Sidorowicz Dawid Wieliszew - 00:56:58 21.06 km/h147.45RL8314
1103722M61plusBogucki Zbigniew . WIELISZEW HERON TEAM 00:57:05 21.02 km/h147.15RZ8162
11134616M41-50Wypich Marcin Nowy Dwór Mazowie TIMBUD TEAM 00:57:14 20.97 km/h146.77RZ8155
11235699M41-50Turczyński Grzegorz Janówek JACEKWITESKA@GMAIL.COM 00:57:29 20.87 km/h146.13RZ8121
1134757M16-20Kłos Hubert Jabłonna - 00:57:32 20.85 km/h146RZ8205
1144177M61plusGramann Andrzej . WIELISZEW HERON TEAM 00:57:35 20.84 km/h145.88RZ8062
1158692M51-60Lewandowski Krzysztof Bodzanów SOKÓŁ BODZANÓW 00:57:58 20.7 km/h144.91RZ8134
11636683M41-50Kuciej Zbigniew Legionowo - 00:58:20 20.57 km/h144RZ8194
11752605M31-40Niemyjski Jarosław Chotomów BIKE FUN LEGIONOWO 00:58:24 20.55 km/h143.84RZ8213
111756K16-20Szaturska Aleksandra Wieliszew KAMYK RADZYMIN MTB TEAM 00:58:29 20.52 km/h168.37RZ8203
11814628M21-30Roman Damian Legionowo BIKE FUN LEGIONOWO 00:58:29 20.52 km/h143.63RZ8164
11915749M21-30Kubacki Władysław . JW3934 00:58:33 20.49 km/h143.47RZ8209
1205950M16-20Szczerek Mikolaj Warszawa/wesola - 00:58:39 20.46 km/h143.22RJ8403
125688K31-40Deja Magdalena Warszawa AMATORSZCZYZNA TEAM 00:58:41 20.45 km/h167.79RJ8374
12137652M41-50Cisiak Arkadiusz Warszawa - 00:59:06 20.3 km/h142.13RZ8177
12253622M31-40Siwek Maciej Legionowo BIKE FUN LEGIONOWO 00:59:10 20.28 km/h141.97RW8236
1236973M16-20Prędota Bartosz Warszawa TRUCHT TARCHOMIN TEAM 00:59:14 20.26 km/h141.81RJ8414
12416646M21-30Ogrodowicz Maciej Wieliszew PROJECT IM 2020 00:59:18 20.24 km/h141.65RJ8363
12554654M31-40Czajka Dariusz Komornica PROFIL GOLD TEAM 00:59:22 20.21 km/h141.49RJ8364
12638920M41-50Siwiec Robert Olszewnica Stara PLIK TEAM 00:59:27 20.18 km/h141.3RJ8392
136606K31-40Majorek Zofia Czaplinek AKTYWNA RODZINA 00:59:43 20.09 km/h164.89RZ8080
141660K51-60Gocejna Beata Płońsk - 00:59:48 20.07 km/h164.66RW8241
1279661M51-60Szczygieł Sławomir Płońsk KB IM. P. SĘKOWSKIEGO 00:59:52 20.04 km/h140.31RZ8201
12839702M41-50Klimkiewicz Piotr Legionowo MCP BIKE TEAM 00:59:57 20.01 km/h140.12RJ8379
12940940M41-50Grzesik Marcin Chotomów GRUPA BIEGOWA CHTMO 01:00:03 19.98 km/h139.88RJ8399
13041648M41-50Redford Robert Legionowo - 01:00:17 19.9 km/h139.34RZ8094
13155962M31-40Koter Aleksander Warszawa IRUN CADENCE 01:00:19 19.89 km/h139.26RJ8406
154707K41-50Mocko Beata Wołomin KAMYK RADZYMIN MTB TEAM 01:00:23 19.87 km/h163.07RZ8065
13256799M31-40Brzozowski Zbyszek 01:00:54 19.7 km/h137.93RZ8151
13342936M41-50Pilewski Andrzej Warszawa - 01:01:00 19.67 km/h137.7RJ8397
167612K31-40Kramska-Dorsz Katarzyna Wołomin KAMYK RADZYMIN MTB TEAM 01:01:08 19.63 km/h161.07RJ8358
1347761M16-20Michalik Sylwester Nowy Dwór Mazowie - 01:01:21 19.56 km/h136.92RJ8387
1   2   3   4   5   

Obsługiwane typy zawodów

  • kolarstwo szosowe
  • kolarstwo górskie
  • biegi, maratony
  • rolkarstwo
  • narciarstwo, snowboard
  • i wiele innych

Czym jest nasza firma?

Charakteru firmy nie określa jej nazwa, statut czy akty prawne. Okreś­lają go potrzeby klienta, które zostają zaspokojone, kiedy kupuje on jakiś produkt lub usługę. Zadowolenie klienta stanowi mi­sję i cel naszej firmy. Odpowiedź na pytanie, czym jest nasza firma, można więc uzyskać, jedynie patrząc na nią z zewnątrz, z pun­ktu widzenia klienta i rynku.

Znajdź nas na

  • Facebook: Czasomierzyk
  • Google: 102048948199715833978
  • YouTube: Czasomierzyk
Chcesz dostawać informacje o nowościach?
Zapisz się do naszego newslettera